sensor_id;sensor_type;location;lat;lon;timestamp;P1;durP1;ratioP1;P2;durP2;ratioP2
16866;SDS011;8550;52.596;13.320;2022-07-03T00:00:02;9.52;;;3.40;;
16866;SDS011;8550;52.596;13.320;2022-07-03T00:05:05;4.32;;;3.17;;
16866;SDS011;8550;52.596;13.320;2022-07-03T00:10:09;5.45;;;3.20;;
16866;SDS011;8550;52.596;13.320;2022-07-03T00:15:10;6.40;;;3.25;;
16866;SDS011;8550;52.596;13.320;2022-07-03T00:20:12;7.53;;;3.17;;
16866;SDS011;8550;52.596;13.320;2022-07-03T00:25:15;6.65;;;3.33;;
16866;SDS011;8550;52.596;13.320;2022-07-03T00:30:19;4.95;;;3.25;;
16866;SDS011;8550;52.596;13.320;2022-07-03T00:35:22;8.38;;;3.22;;
16866;SDS011;8550;52.596;13.320;2022-07-03T00:40:26;4.75;;;3.33;;
16866;SDS011;8550;52.596;13.320;2022-07-03T00:45:27;4.25;;;3.58;;
16866;SDS011;8550;52.596;13.320;2022-07-03T00:50:34;5.43;;;3.78;;
16866;SDS011;8550;52.596;13.320;2022-07-03T00:55:38;5.15;;;3.70;;
16866;SDS011;8550;52.596;13.320;2022-07-03T01:00:42;5.45;;;3.70;;
16866;SDS011;8550;52.596;13.320;2022-07-03T01:05:48;7.65;;;3.30;;
16866;SDS011;8550;52.596;13.320;2022-07-03T01:10:56;7.45;;;3.72;;
16866;SDS011;8550;52.596;13.320;2022-07-03T01:16:05;6.10;;;3.58;;
16866;SDS011;8550;52.596;13.320;2022-07-03T01:21:09;5.15;;;3.45;;
16866;SDS011;8550;52.596;13.320;2022-07-03T01:26:14;6.50;;;4.40;;
16866;SDS011;8550;52.596;13.320;2022-07-03T01:31:18;6.38;;;4.15;;
16866;SDS011;8550;52.596;13.320;2022-07-03T01:36:21;7.65;;;3.80;;
16866;SDS011;8550;52.596;13.320;2022-07-03T01:41:26;7.82;;;3.95;;
16866;SDS011;8550;52.596;13.320;2022-07-03T01:46:31;5.00;;;3.83;;
16866;SDS011;8550;52.596;13.320;2022-07-03T01:51:34;5.70;;;4.30;;
16866;SDS011;8550;52.596;13.320;2022-07-03T01:56:39;4.72;;;3.60;;
16866;SDS011;8550;52.596;13.320;2022-07-03T02:01:45;6.72;;;3.63;;
16866;SDS011;8550;52.596;13.320;2022-07-03T02:06:54;8.88;;;3.80;;
16866;SDS011;8550;52.596;13.320;2022-07-03T02:12:04;8.75;;;4.18;;
16866;SDS011;8550;52.596;13.320;2022-07-03T02:17:15;7.38;;;4.18;;
16866;SDS011;8550;52.596;13.320;2022-07-03T02:22:19;5.97;;;3.95;;
16866;SDS011;8550;52.596;13.320;2022-07-03T02:27:28;5.07;;;4.00;;
16866;SDS011;8550;52.596;13.320;2022-07-03T02:32:50;5.20;;;4.00;;
16866;SDS011;8550;52.596;13.320;2022-07-03T02:37:56;10.90;;;4.63;;
16866;SDS011;8550;52.596;13.320;2022-07-03T02:43:09;7.03;;;4.18;;
16866;SDS011;8550;52.596;13.320;2022-07-03T02:48:18;6.15;;;4.25;;
16866;SDS011;8550;52.596;13.320;2022-07-03T02:53:28;5.97;;;4.28;;
16866;SDS011;8550;52.596;13.320;2022-07-03T02:58:49;8.20;;;4.38;;
16866;SDS011;8550;52.596;13.320;2022-07-03T03:04:09;5.93;;;3.92;;
16866;SDS011;8550;52.596;13.320;2022-07-03T03:09:19;7.50;;;4.15;;
16866;SDS011;8550;52.596;13.320;2022-07-03T03:14:26;7.70;;;4.80;;
16866;SDS011;8550;52.596;13.320;2022-07-03T03:19:41;6.85;;;3.97;;
16866;SDS011;8550;52.596;13.320;2022-07-03T03:24:47;6.88;;;3.88;;
16866;SDS011;8550;52.596;13.320;2022-07-03T03:29:50;6.95;;;3.80;;
16866;SDS011;8550;52.596;13.320;2022-07-03T03:34:54;12.15;;;5.32;;
16866;SDS011;8550;52.596;13.320;2022-07-03T03:39:56;38.67;;;7.78;;
16866;SDS011;8550;52.596;13.320;2022-07-03T03:44:58;15.45;;;5.68;;
16866;SDS011;8550;52.596;13.320;2022-07-03T03:50:01;12.98;;;5.10;;
16866;SDS011;8550;52.596;13.320;2022-07-03T03:55:04;21.73;;;5.40;;
16866;SDS011;8550;52.596;13.320;2022-07-03T04:00:09;14.50;;;5.10;;
16866;SDS011;8550;52.596;13.320;2022-07-03T04:05:13;9.38;;;4.65;;
16866;SDS011;8550;52.596;13.320;2022-07-03T04:10:15;6.30;;;4.30;;
16866;SDS011;8550;52.596;13.320;2022-07-03T04:15:17;5.88;;;4.18;;
16866;SDS011;8550;52.596;13.320;2022-07-03T04:20:20;6.93;;;3.90;;
16866;SDS011;8550;52.596;13.320;2022-07-03T04:25:22;5.68;;;3.75;;
16866;SDS011;8550;52.596;13.320;2022-07-03T04:30:24;7.43;;;4.15;;
16866;SDS011;8550;52.596;13.320;2022-07-03T04:35:28;5.47;;;4.03;;
16866;SDS011;8550;52.596;13.320;2022-07-03T04:40:30;4.60;;;4.00;;
16866;SDS011;8550;52.596;13.320;2022-07-03T04:45:33;7.90;;;4.22;;
16866;SDS011;8550;52.596;13.320;2022-07-03T04:50:37;5.32;;;4.10;;
16866;SDS011;8550;52.596;13.320;2022-07-03T04:55:39;5.03;;;3.67;;
16866;SDS011;8550;52.596;13.320;2022-07-03T05:00:42;5.53;;;4.10;;
16866;SDS011;8550;52.596;13.320;2022-07-03T05:05:46;5.65;;;3.80;;
16866;SDS011;8550;52.596;13.320;2022-07-03T05:10:47;4.85;;;3.70;;
16866;SDS011;8550;52.596;13.320;2022-07-03T05:15:49;4.90;;;3.75;;
16866;SDS011;8550;52.596;13.320;2022-07-03T05:20:52;4.43;;;3.45;;
16866;SDS011;8550;52.596;13.320;2022-07-03T05:25:54;6.50;;;3.13;;
16866;SDS011;8550;52.596;13.320;2022-07-03T05:30:58;8.23;;;3.78;;
16866;SDS011;8550;52.596;13.320;2022-07-03T05:36:01;4.78;;;3.40;;
16866;SDS011;8550;52.596;13.320;2022-07-03T05:41:04;5.97;;;3.25;;
16866;SDS011;8550;52.596;13.320;2022-07-03T05:46:06;4.85;;;3.42;;
16866;SDS011;8550;52.596;13.320;2022-07-03T05:51:09;4.90;;;3.95;;
16866;SDS011;8550;52.596;13.320;2022-07-03T05:56:11;4.82;;;3.08;;
16866;SDS011;8550;52.596;13.320;2022-07-03T06:01:12;4.82;;;3.17;;
16866;SDS011;8550;52.596;13.320;2022-07-03T06:06:15;4.15;;;3.25;;
16866;SDS011;8550;52.596;13.320;2022-07-03T06:11:17;4.07;;;2.80;;
16866;SDS011;8550;52.596;13.320;2022-07-03T06:16:20;4.07;;;2.97;;
16866;SDS011;8550;52.596;13.320;2022-07-03T06:21:24;3.58;;;2.35;;
16866;SDS011;8550;52.596;13.320;2022-07-03T06:26:25;4.00;;;2.60;;
16866;SDS011;8550;52.596;13.320;2022-07-03T06:31:29;4.32;;;2.67;;
16866;SDS011;8550;52.596;13.320;2022-07-03T06:36:33;2.95;;;2.65;;
16866;SDS011;8550;52.596;13.320;2022-07-03T06:41:34;3.78;;;2.50;;
16866;SDS011;8550;52.596;13.320;2022-07-03T06:46:36;4.20;;;2.70;;
16866;SDS011;8550;52.596;13.320;2022-07-03T06:51:39;5.70;;;2.45;;
16866;SDS011;8550;52.596;13.320;2022-07-03T06:56:41;5.47;;;2.80;;
16866;SDS011;8550;52.596;13.320;2022-07-03T07:01:43;2.95;;;2.50;;
16866;SDS011;8550;52.596;13.320;2022-07-03T07:06:46;3.40;;;2.50;;
16866;SDS011;8550;52.596;13.320;2022-07-03T07:11:48;5.78;;;2.97;;
16866;SDS011;8550;52.596;13.320;2022-07-03T07:16:51;3.28;;;2.40;;
16866;SDS011;8550;52.596;13.320;2022-07-03T07:21:54;6.00;;;2.95;;
16866;SDS011;8550;52.596;13.320;2022-07-03T07:26:56;3.20;;;2.45;;
16866;SDS011;8550;52.596;13.320;2022-07-03T07:31:58;5.97;;;2.67;;
16866;SDS011;8550;52.596;13.320;2022-07-03T07:37:01;3.40;;;2.63;;
16866;SDS011;8550;52.596;13.320;2022-07-03T07:42:03;2.92;;;2.30;;
16866;SDS011;8550;52.596;13.320;2022-07-03T07:47:05;5.13;;;2.47;;
16866;SDS011;8550;52.596;13.320;2022-07-03T07:52:09;4.18;;;2.78;;
16866;SDS011;8550;52.596;13.320;2022-07-03T07:57:10;6.50;;;2.92;;
16866;SDS011;8550;52.596;13.320;2022-07-03T08:02:12;4.13;;;2.75;;
16866;SDS011;8550;52.596;13.320;2022-07-03T08:07:33;4.07;;;2.17;;
16866;SDS011;8550;52.596;13.320;2022-07-03T08:12:34;3.20;;;2.50;;
16866;SDS011;8550;52.596;13.320;2022-07-03T08:17:36;3.28;;;2.38;;
16866;SDS011;8550;52.596;13.320;2022-07-03T08:22:39;3.75;;;2.47;;
16866;SDS011;8550;52.596;13.320;2022-07-03T08:27:41;2.88;;;2.30;;
16866;SDS011;8550;52.596;13.320;2022-07-03T08:32:43;2.60;;;2.33;;
16866;SDS011;8550;52.596;13.320;2022-07-03T08:37:47;3.25;;;2.28;;
16866;SDS011;8550;52.596;13.320;2022-07-03T08:42:49;2.72;;;2.30;;
16866;SDS011;8550;52.596;13.320;2022-07-03T08:47:54;3.08;;;2.25;;
16866;SDS011;8550;52.596;13.320;2022-07-03T08:52:59;3.08;;;2.60;;
16866;SDS011;8550;52.596;13.320;2022-07-03T08:58:03;4.47;;;2.30;;
16866;SDS011;8550;52.596;13.320;2022-07-03T09:03:08;4.35;;;2.47;;
16866;SDS011;8550;52.596;13.320;2022-07-03T09:08:13;2.85;;;2.30;;
16866;SDS011;8550;52.596;13.320;2022-07-03T09:13:17;3.85;;;2.25;;
16866;SDS011;8550;52.596;13.320;2022-07-03T09:18:21;2.90;;;2.40;;
16866;SDS011;8550;52.596;13.320;2022-07-03T09:23:42;3.47;;;2.40;;
16866;SDS011;8550;52.596;13.320;2022-07-03T09:28:46;3.55;;;2.30;;
16866;SDS011;8550;52.596;13.320;2022-07-03T09:33:52;2.28;;;2.08;;
16866;SDS011;8550;52.596;13.320;2022-07-03T09:38:56;2.63;;;2.15;;
16866;SDS011;8550;52.596;13.320;2022-07-03T09:43:58;3.80;;;2.45;;
16866;SDS011;8550;52.596;13.320;2022-07-03T09:49:01;3.38;;;2.30;;
16866;SDS011;8550;52.596;13.320;2022-07-03T09:54:05;6.45;;;1.90;;
16866;SDS011;8550;52.596;13.320;2022-07-03T09:59:08;6.03;;;2.17;;
16866;SDS011;8550;52.596;13.320;2022-07-03T10:04:11;4.30;;;1.95;;
16866;SDS011;8550;52.596;13.320;2022-07-03T10:09:17;2.80;;;1.90;;
16866;SDS011;8550;52.596;13.320;2022-07-03T10:14:20;4.03;;;2.30;;
16866;SDS011;8550;52.596;13.320;2022-07-03T10:19:25;9.07;;;5.68;;
16866;SDS011;8550;52.596;13.320;2022-07-03T10:24:30;3.67;;;2.17;;
16866;SDS011;8550;52.596;13.320;2022-07-03T10:29:32;2.08;;;1.88;;
16866;SDS011;8550;52.596;13.320;2022-07-03T10:34:37;2.20;;;2.00;;
16866;SDS011;8550;52.596;13.320;2022-07-03T10:39:43;5.47;;;2.20;;
16866;SDS011;8550;52.596;13.320;2022-07-03T10:44:51;8.43;;;3.17;;
16866;SDS011;8550;52.596;13.320;2022-07-03T10:50:08;2.28;;;2.08;;
16866;SDS011;8550;52.596;13.320;2022-07-03T10:55:13;2.30;;;1.92;;
16866;SDS011;8550;52.596;13.320;2022-07-03T11:00:17;3.42;;;2.10;;
16866;SDS011;8550;52.596;13.320;2022-07-03T11:05:26;5.70;;;1.80;;
16866;SDS011;8550;52.596;13.320;2022-07-03T11:10:39;3.63;;;2.00;;
16866;SDS011;8550;52.596;13.320;2022-07-03T11:15:43;2.20;;;2.00;;
16866;SDS011;8550;52.596;13.320;2022-07-03T11:26:30;3.28;;;1.70;;
16866;SDS011;8550;52.596;13.320;2022-07-03T11:31:32;1.65;;;1.55;;
16866;SDS011;8550;52.596;13.320;2022-07-03T11:36:34;1.90;;;1.80;;
16866;SDS011;8550;52.596;13.320;2022-07-03T11:41:44;1.70;;;1.42;;
16866;SDS011;8550;52.596;13.320;2022-07-03T11:46:48;3.80;;;1.50;;
16866;SDS011;8550;52.596;13.320;2022-07-03T11:51:59;5.95;;;1.60;;
16866;SDS011;8550;52.596;13.320;2022-07-03T11:57:03;4.60;;;1.50;;
16866;SDS011;8550;52.596;13.320;2022-07-03T12:02:07;2.58;;;1.80;;
16866;SDS011;8550;52.596;13.320;2022-07-03T12:07:08;2.05;;;1.40;;
16866;SDS011;8550;52.596;13.320;2022-07-03T12:12:12;2.25;;;1.77;;
16866;SDS011;8550;52.596;13.320;2022-07-03T12:17:14;3.85;;;1.40;;
16866;SDS011;8550;52.596;13.320;2022-07-03T12:22:24;7.82;;;1.45;;
16866;SDS011;8550;52.596;13.320;2022-07-03T12:27:27;1.80;;;1.38;;
16866;SDS011;8550;52.596;13.320;2022-07-03T12:32:30;2.10;;;1.30;;
16866;SDS011;8550;52.596;13.320;2022-07-03T12:37:32;1.58;;;1.38;;
16866;SDS011;8550;52.596;13.320;2022-07-03T12:42:43;2.28;;;1.40;;
16866;SDS011;8550;52.596;13.320;2022-07-03T12:47:56;2.15;;;1.95;;
16866;SDS011;8550;52.596;13.320;2022-07-03T12:52:58;3.63;;;1.35;;
16866;SDS011;8550;52.596;13.320;2022-07-03T12:58:11;1.20;;;1.00;;
16866;SDS011;8550;52.596;13.320;2022-07-03T13:03:34;1.50;;;1.40;;
16866;SDS011;8550;52.596;13.320;2022-07-03T13:08:36;1.33;;;1.10;;
16866;SDS011;8550;52.596;13.320;2022-07-03T13:13:46;2.33;;;1.30;;
16866;SDS011;8550;52.596;13.320;2022-07-03T13:18:56;1.60;;;1.20;;
16866;SDS011;8550;52.596;13.320;2022-07-03T13:23:58;1.35;;;1.25;;
16866;SDS011;8550;52.596;13.320;2022-07-03T13:29:02;1.85;;;1.27;;
16866;SDS011;8550;52.596;13.320;2022-07-03T13:34:04;5.47;;;1.50;;
16866;SDS011;8550;52.596;13.320;2022-07-03T13:39:06;1.55;;;1.33;;
16866;SDS011;8550;52.596;13.320;2022-07-03T13:44:10;2.35;;;1.55;;
16866;SDS011;8550;52.596;13.320;2022-07-03T13:49:12;2.30;;;1.83;;
16866;SDS011;8550;52.596;13.320;2022-07-03T13:54:14;1.55;;;1.30;;
16866;SDS011;8550;52.596;13.320;2022-07-03T13:59:17;2.63;;;1.35;;
16866;SDS011;8550;52.596;13.320;2022-07-03T14:04:19;2.30;;;1.48;;
16866;SDS011;8550;52.596;13.320;2022-07-03T14:09:21;1.33;;;1.10;;
16866;SDS011;8550;52.596;13.320;2022-07-03T14:14:24;1.85;;;1.10;;
16866;SDS011;8550;52.596;13.320;2022-07-03T14:19:26;2.72;;;1.35;;
16866;SDS011;8550;52.596;13.320;2022-07-03T14:24:28;1.83;;;1.20;;
16866;SDS011;8550;52.596;13.320;2022-07-03T14:29:31;1.90;;;1.17;;
16866;SDS011;8550;52.596;13.320;2022-07-03T14:34:50;1.35;;;1.10;;
16866;SDS011;8550;52.596;13.320;2022-07-03T14:39:52;1.17;;;1.00;;
16866;SDS011;8550;52.596;13.320;2022-07-03T14:44:56;2.17;;;1.13;;
16866;SDS011;8550;52.596;13.320;2022-07-03T14:49:58;3.15;;;1.70;;
16866;SDS011;8550;52.596;13.320;2022-07-03T14:55:00;2.40;;;1.38;;
16866;SDS011;8550;52.596;13.320;2022-07-03T15:00:05;3.90;;;1.85;;
16866;SDS011;8550;52.596;13.320;2022-07-03T15:05:09;2.45;;;1.50;;
16866;SDS011;8550;52.596;13.320;2022-07-03T15:10:12;1.33;;;1.17;;
16866;SDS011;8550;52.596;13.320;2022-07-03T15:15:18;2.67;;;1.27;;
16866;SDS011;8550;52.596;13.320;2022-07-03T15:20:21;2.67;;;1.63;;
16866;SDS011;8550;52.596;13.320;2022-07-03T15:25:25;1.48;;;1.38;;
16866;SDS011;8550;52.596;13.320;2022-07-03T15:30:30;3.15;;;1.50;;
16866;SDS011;8550;52.596;13.320;2022-07-03T15:35:32;2.53;;;1.40;;
16866;SDS011;8550;52.596;13.320;2022-07-03T15:40:35;2.42;;;1.50;;
16866;SDS011;8550;52.596;13.320;2022-07-03T15:45:50;2.13;;;1.45;;
16866;SDS011;8550;52.596;13.320;2022-07-03T15:50:59;2.95;;;1.58;;
16866;SDS011;8550;52.596;13.320;2022-07-03T15:56:09;2.95;;;1.27;;
16866;SDS011;8550;52.596;13.320;2022-07-03T16:01:17;2.75;;;1.55;;
16866;SDS011;8550;52.596;13.320;2022-07-03T16:06:40;3.05;;;2.15;;
16866;SDS011;8550;52.596;13.320;2022-07-03T16:11:43;3.70;;;1.52;;
16866;SDS011;8550;52.596;13.320;2022-07-03T16:16:47;5.90;;;1.70;;
16866;SDS011;8550;52.596;13.320;2022-07-03T16:21:51;2.25;;;1.55;;
16866;SDS011;8550;52.596;13.320;2022-07-03T16:26:56;3.35;;;1.65;;
16866;SDS011;8550;52.596;13.320;2022-07-03T16:32:01;2.10;;;1.50;;
16866;SDS011;8550;52.596;13.320;2022-07-03T16:37:06;1.60;;;1.45;;
16866;SDS011;8550;52.596;13.320;2022-07-03T16:42:10;1.90;;;1.80;;
16866;SDS011;8550;52.596;13.320;2022-07-03T16:47:14;2.33;;;1.45;;
16866;SDS011;8550;52.596;13.320;2022-07-03T16:52:16;5.10;;;1.40;;
16866;SDS011;8550;52.596;13.320;2022-07-03T16:57:22;2.05;;;1.50;;
16866;SDS011;8550;52.596;13.320;2022-07-03T17:02:27;1.95;;;1.75;;
16866;SDS011;8550;52.596;13.320;2022-07-03T17:07:30;3.45;;;1.70;;
16866;SDS011;8550;52.596;13.320;2022-07-03T17:12:33;1.60;;;1.50;;
16866;SDS011;8550;52.596;13.320;2022-07-03T17:17:36;3.60;;;1.50;;
16866;SDS011;8550;52.596;13.320;2022-07-03T17:22:41;1.65;;;1.55;;
16866;SDS011;8550;52.596;13.320;2022-07-03T17:27:46;2.67;;;1.30;;
16866;SDS011;8550;52.596;13.320;2022-07-03T17:32:52;1.60;;;1.50;;
16866;SDS011;8550;52.596;13.320;2022-07-03T17:37:57;1.65;;;1.40;;
16866;SDS011;8550;52.596;13.320;2022-07-03T17:43:01;1.40;;;1.30;;
16866;SDS011;8550;52.596;13.320;2022-07-03T17:48:05;4.63;;;1.60;;
16866;SDS011;8550;52.596;13.320;2022-07-03T17:53:07;1.58;;;1.30;;
16866;SDS011;8550;52.596;13.320;2022-07-03T17:58:13;2.28;;;1.63;;
16866;SDS011;8550;52.596;13.320;2022-07-03T18:03:17;2.97;;;1.70;;
16866;SDS011;8550;52.596;13.320;2022-07-03T18:08:21;1.92;;;1.70;;
16866;SDS011;8550;52.596;13.320;2022-07-03T18:13:28;2.28;;;1.75;;
16866;SDS011;8550;52.596;13.320;2022-07-03T18:18:36;3.00;;;1.45;;
16866;SDS011;8550;52.596;13.320;2022-07-03T18:23:42;1.60;;;1.45;;
16866;SDS011;8550;52.596;13.320;2022-07-03T18:28:47;3.08;;;1.60;;
16866;SDS011;8550;52.596;13.320;2022-07-03T18:33:51;2.03;;;1.63;;
16866;SDS011;8550;52.596;13.320;2022-07-03T18:38:54;2.88;;;1.67;;
16866;SDS011;8550;52.596;13.320;2022-07-03T18:43:58;4.55;;;1.65;;
16866;SDS011;8550;52.596;13.320;2022-07-03T18:49:03;2.40;;;2.10;;
16866;SDS011;8550;52.596;13.320;2022-07-03T18:54:08;2.50;;;2.10;;
16866;SDS011;8550;52.596;13.320;2022-07-03T18:59:15;6.90;;;2.38;;
16866;SDS011;8550;52.596;13.320;2022-07-03T19:04:26;3.88;;;2.90;;
16866;SDS011;8550;52.596;13.320;2022-07-03T19:09:39;2.95;;;2.42;;
16866;SDS011;8550;52.596;13.320;2022-07-03T19:14:45;3.67;;;2.33;;
16866;SDS011;8550;52.596;13.320;2022-07-03T19:19:52;5.82;;;3.45;;
16866;SDS011;8550;52.596;13.320;2022-07-03T19:24:54;3.72;;;2.50;;
16866;SDS011;8550;52.596;13.320;2022-07-03T19:29:55;4.72;;;2.80;;
16866;SDS011;8550;52.596;13.320;2022-07-03T19:34:59;4.10;;;2.70;;
16866;SDS011;8550;52.596;13.320;2022-07-03T19:40:01;3.85;;;2.80;;
16866;SDS011;8550;52.596;13.320;2022-07-03T19:45:03;5.88;;;2.80;;
16866;SDS011;8550;52.596;13.320;2022-07-03T19:50:08;3.90;;;2.70;;
16866;SDS011;8550;52.596;13.320;2022-07-03T19:55:11;4.35;;;2.83;;
16866;SDS011;8550;52.596;13.320;2022-07-03T20:00:13;3.80;;;3.20;;
16866;SDS011;8550;52.596;13.320;2022-07-03T20:05:17;6.03;;;3.40;;
16866;SDS011;8550;52.596;13.320;2022-07-03T20:10:19;6.53;;;3.80;;
16866;SDS011;8550;52.596;13.320;2022-07-03T20:15:22;7.07;;;3.45;;
16866;SDS011;8550;52.596;13.320;2022-07-03T20:20:26;5.55;;;3.35;;
16866;SDS011;8550;52.596;13.320;2022-07-03T20:25:27;11.70;;;5.50;;
16866;SDS011;8550;52.596;13.320;2022-07-03T20:30:31;4.35;;;3.10;;
16866;SDS011;8550;52.596;13.320;2022-07-03T20:35:35;5.35;;;3.00;;
16866;SDS011;8550;52.596;13.320;2022-07-03T20:40:38;4.43;;;3.00;;
16866;SDS011;8550;52.596;13.320;2022-07-03T20:45:40;6.15;;;2.83;;
16866;SDS011;8550;52.596;13.320;2022-07-03T20:50:43;3.83;;;3.25;;
16866;SDS011;8550;52.596;13.320;2022-07-03T20:55:46;3.85;;;2.92;;
16866;SDS011;8550;52.596;13.320;2022-07-03T21:00:47;4.07;;;3.45;;
16866;SDS011;8550;52.596;13.320;2022-07-03T21:05:50;7.25;;;3.00;;
16866;SDS011;8550;52.596;13.320;2022-07-03T21:10:52;4.10;;;3.13;;
16866;SDS011;8550;52.596;13.320;2022-07-03T21:16:11;5.90;;;3.63;;
16866;SDS011;8550;52.596;13.320;2022-07-03T21:21:15;5.13;;;3.70;;
16866;SDS011;8550;52.596;13.320;2022-07-03T21:26:17;3.90;;;3.35;;
16866;SDS011;8550;52.596;13.320;2022-07-03T21:31:19;5.95;;;3.45;;
16866;SDS011;8550;52.596;13.320;2022-07-03T21:36:22;4.72;;;3.83;;
16866;SDS011;8550;52.596;13.320;2022-07-03T21:41:24;6.68;;;3.90;;
16866;SDS011;8550;52.596;13.320;2022-07-03T21:46:26;5.72;;;3.10;;
16866;SDS011;8550;52.596;13.320;2022-07-03T21:51:29;3.95;;;3.17;;
16866;SDS011;8550;52.596;13.320;2022-07-03T21:56:31;4.25;;;2.90;;
16866;SDS011;8550;52.596;13.320;2022-07-03T22:01:33;5.75;;;4.38;;
16866;SDS011;8550;52.596;13.320;2022-07-03T22:06:36;4.30;;;3.28;;
16866;SDS011;8550;52.596;13.320;2022-07-03T22:11:38;3.95;;;3.10;;
16866;SDS011;8550;52.596;13.320;2022-07-03T22:17:00;4.88;;;3.47;;
16866;SDS011;8550;52.596;13.320;2022-07-03T22:22:03;5.82;;;3.15;;
16866;SDS011;8550;52.596;13.320;2022-07-03T22:27:06;4.75;;;2.95;;
16866;SDS011;8550;52.596;13.320;2022-07-03T22:32:08;4.60;;;3.42;;
16866;SDS011;8550;52.596;13.320;2022-07-03T22:37:11;6.45;;;3.28;;
16866;SDS011;8550;52.596;13.320;2022-07-03T22:42:13;4.85;;;3.20;;
16866;SDS011;8550;52.596;13.320;2022-07-03T22:47:15;10.10;;;3.90;;
16866;SDS011;8550;52.596;13.320;2022-07-03T22:52:18;5.75;;;4.30;;
16866;SDS011;8550;52.596;13.320;2022-07-03T22:57:20;4.97;;;3.72;;
16866;SDS011;8550;52.596;13.320;2022-07-03T23:02:22;5.57;;;3.50;;
16866;SDS011;8550;52.596;13.320;2022-07-03T23:07:26;5.28;;;2.70;;
16866;SDS011;8550;52.596;13.320;2022-07-03T23:12:28;5.13;;;2.90;;
16866;SDS011;8550;52.596;13.320;2022-07-03T23:17:29;5.35;;;2.90;;
16866;SDS011;8550;52.596;13.320;2022-07-03T23:22:33;4.45;;;2.75;;
16866;SDS011;8550;52.596;13.320;2022-07-03T23:27:34;7.68;;;3.28;;
16866;SDS011;8550;52.596;13.320;2022-07-03T23:32:36;3.33;;;2.53;;
16866;SDS011;8550;52.596;13.320;2022-07-03T23:37:39;6.90;;;2.85;;
16866;SDS011;8550;52.596;13.320;2022-07-03T23:42:41;10.77;;;3.80;;
16866;SDS011;8550;52.596;13.320;2022-07-03T23:47:43;4.22;;;2.50;;
16866;SDS011;8550;52.596;13.320;2022-07-03T23:52:46;8.95;;;2.58;;
16866;SDS011;8550;52.596;13.320;2022-07-03T23:57:48;4.15;;;2.80;;
